createdAt,value
2023-11-27T00:01:04.611Z,79.14
2023-11-27T00:03:32.567Z,78.88
2023-11-27T00:06:00.400Z,79.14
2023-11-27T00:08:28.257Z,78.93
2023-11-27T00:10:58.775Z,78.80
2023-11-27T00:13:27.954Z,78.53
2023-11-27T00:15:57.185Z,77.81
2023-11-27T00:18:25.042Z,77.93
2023-11-27T00:20:53.692Z,78.19
2023-11-27T00:23:21.574Z,78.52
2023-11-27T00:25:49.444Z,78.26
2023-11-27T00:28:17.361Z,78.49
2023-11-27T00:30:45.754Z,78.49
2023-11-27T00:33:15.875Z,79.08
2023-11-27T00:35:43.856Z,78.72
2023-11-27T00:38:11.720Z,79.44
2023-11-27T00:40:39.541Z,78.50
2023-11-27T00:43:07.388Z,78.61
2023-11-27T00:45:35.525Z,78.89
2023-11-27T00:48:03.411Z,79.75
2023-11-27T00:50:33.019Z,80.03
2023-11-27T00:53:00.874Z,80.63
2023-11-27T00:55:28.759Z,81.03
2023-11-27T00:57:56.957Z,80.76
2023-11-27T01:00:26.073Z,80.05
2023-11-27T01:02:54.829Z,80.14
2023-11-27T01:05:22.848Z,79.85
2023-11-27T01:07:52.275Z,79.76
2023-11-27T01:10:20.388Z,79.81
2023-11-27T01:12:51.313Z,80.12
2023-11-27T01:15:19.943Z,80.40
2023-11-27T01:17:47.880Z,79.99
2023-11-27T01:20:15.881Z,79.79
2023-11-27T01:22:44.105Z,80.00
2023-11-27T01:25:13.416Z,79.28
2023-11-27T01:27:41.300Z,78.53
2023-11-27T01:30:10.056Z,79.17
2023-11-27T01:32:38.295Z,80.49
2023-11-27T01:35:06.949Z,80.63
2023-11-27T01:37:35.356Z,80.42
2023-11-27T01:40:03.270Z,79.43
2023-11-27T01:42:32.491Z,79.80
2023-11-27T01:45:00.356Z,79.53
2023-11-27T01:47:28.214Z,79.40
2023-11-27T01:49:56.834Z,79.09
2023-11-27T01:52:27.089Z,79.40
2023-11-27T01:54:55.588Z,79.64
2023-11-27T01:57:25.642Z,80.05
2023-11-27T01:59:57.519Z,80.53
2023-11-27T02:02:25.938Z,80.67
2023-11-27T02:04:53.897Z,80.80
2023-11-27T02:07:22.028Z,80.55
2023-11-27T02:09:49.956Z,80.72
2023-11-27T02:12:17.838Z,79.71
2023-11-27T02:14:46.351Z,79.40
2023-11-27T02:17:15.701Z,79.96
2023-11-27T02:19:43.589Z,80.22
2023-11-27T02:22:11.566Z,80.42
2023-11-27T02:24:40.836Z,80.05
2023-11-27T02:27:08.797Z,80.71
2023-11-27T02:29:36.878Z,80.88
2023-11-27T02:32:07.448Z,81.64
2023-11-27T02:34:35.369Z,82.37
2023-11-27T02:37:03.310Z,82.55
2023-11-27T02:39:31.176Z,82.02
2023-11-27T02:42:02.065Z,81.33
2023-11-27T02:44:30.353Z,80.78
2023-11-27T02:46:58.278Z,80.99
2023-11-27T02:49:26.168Z,80.58
2023-11-27T02:51:54.041Z,81.11
2023-11-27T02:54:21.950Z,80.97
2023-11-27T02:56:49.832Z,81.09
2023-11-27T02:59:19.414Z,80.70
2023-11-27T03:01:48.237Z,80.13
2023-11-27T03:04:16.194Z,80.55
2023-11-27T03:06:44.503Z,80.89
2023-11-27T03:09:17.116Z,80.93
2023-11-27T03:11:45.398Z,80.71
2023-11-27T03:14:13.244Z,80.58
2023-11-27T03:16:42.656Z,80.60
2023-11-27T03:19:10.622Z,80.52
2023-11-27T03:21:38.679Z,80.47
2023-11-27T03:24:07.278Z,81.26
2023-11-27T03:26:35.308Z,82.02
2023-11-27T03:29:04.403Z,82.19
2023-11-27T03:31:32.356Z,81.55
2023-11-27T03:34:01.601Z,81.18
2023-11-27T03:36:29.741Z,80.95
2023-11-27T03:38:57.682Z,80.36
2023-11-27T03:41:25.499Z,80.63
2023-11-27T03:43:54.658Z,81.15
2023-11-27T03:46:23.024Z,80.79
2023-11-27T03:48:51.003Z,80.57
2023-11-27T03:51:20.260Z,80.75
2023-11-27T03:53:48.161Z,80.83
2023-11-27T03:56:17.006Z,81.11
2023-11-27T03:58:44.846Z,80.97
2023-11-27T04:01:14.657Z,81.01
2023-11-27T04:03:42.674Z,80.76
2023-11-27T04:06:13.672Z,81.17
2023-11-27T04:08:44.079Z,81.00
2023-11-27T04:11:14.373Z,81.29
2023-11-27T04:13:42.944Z,81.00
2023-11-27T04:16:11.851Z,80.79
2023-11-27T04:18:39.894Z,81.02
2023-11-27T04:21:09.193Z,80.52
2023-11-27T04:23:37.040Z,81.08
2023-11-27T04:26:06.952Z,80.73
2023-11-27T04:28:34.828Z,81.16
2023-11-27T04:31:02.764Z,80.96
2023-11-27T04:33:30.728Z,81.12
2023-11-27T04:35:58.648Z,81.63
2023-11-27T04:38:26.570Z,81.04
2023-11-27T04:40:54.428Z,81.16
2023-11-27T04:43:24.575Z,80.95
2023-11-27T04:45:52.552Z,80.85
2023-11-27T04:48:20.952Z,80.68
2023-11-27T04:50:48.800Z,81.30
2023-11-27T04:53:16.621Z,81.23
2023-11-27T04:55:44.507Z,80.96
2023-11-27T04:58:12.392Z,81.64
2023-11-27T05:00:41.636Z,81.96
2023-11-27T05:03:09.527Z,82.79
2023-11-27T05:05:37.742Z,82.55
2023-11-27T05:08:06.002Z,82.14
2023-11-27T05:10:40.080Z,81.82
2023-11-27T05:13:08.069Z,81.84
2023-11-27T05:15:35.926Z,81.37
2023-11-27T05:18:05.886Z,81.54
2023-11-27T05:20:33.776Z,80.55
2023-11-27T05:23:02.963Z,80.62
2023-11-27T05:25:30.949Z,80.44
2023-11-27T05:27:58.862Z,79.97
2023-11-27T05:30:26.833Z,79.48
2023-11-27T05:32:54.762Z,79.07
2023-11-27T05:35:23.973Z,78.93
2023-11-27T05:37:51.835Z,79.48
2023-11-27T05:40:19.905Z,80.06
2023-11-27T05:42:47.767Z,79.88
2023-11-27T05:45:16.171Z,79.84
2023-11-27T05:47:44.323Z,79.96
2023-11-27T05:50:14.604Z,80.13
2023-11-27T05:52:44.123Z,79.82
2023-11-27T05:55:12.002Z,80.13
2023-11-27T05:57:39.856Z,79.78
2023-11-27T06:00:09.024Z,78.88
2023-11-27T06:02:42.655Z,78.87
2023-11-27T06:05:10.931Z,78.83
2023-11-27T06:07:39.025Z,78.67
2023-11-27T06:10:09.455Z,78.08
2023-11-27T06:12:37.309Z,78.68
2023-11-27T06:15:06.190Z,78.21
2023-11-27T06:17:34.212Z,78.72
2023-11-27T06:20:02.044Z,79.07
2023-11-27T06:22:33.305Z,81.69
2023-11-27T06:25:01.557Z,82.78
2023-11-27T06:27:30.874Z,82.93
2023-11-27T06:29:58.972Z,82.95
2023-11-27T06:32:26.869Z,81.60
2023-11-27T06:34:54.862Z,80.13
2023-11-27T06:37:22.941Z,79.45
2023-11-27T06:39:50.814Z,79.26
2023-11-27T06:42:18.656Z,78.61
2023-11-27T06:44:47.927Z,77.64
2023-11-27T06:47:15.836Z,78.03
2023-11-27T06:49:45.087Z,78.27
2023-11-27T06:52:12.997Z,77.55
2023-11-27T06:54:41.057Z,78.04
2023-11-27T06:57:10.096Z,77.96
2023-11-27T06:59:38.627Z,78.05
2023-11-27T07:02:07.994Z,77.93
2023-11-27T07:04:35.982Z,78.06
2023-11-27T07:07:04.013Z,78.11
2023-11-27T07:09:31.877Z,78.26
2023-11-27T07:11:59.761Z,77.84
2023-11-27T07:14:27.774Z,78.00
2023-11-27T07:16:55.959Z,78.31
2023-11-27T07:19:26.241Z,78.44
2023-11-27T07:21:54.159Z,78.46
2023-11-27T07:24:22.748Z,78.65
2023-11-27T07:26:50.678Z,82.33
2023-11-27T07:29:18.580Z,77.46
2023-11-27T07:31:48.256Z,77.39
2023-11-27T07:34:16.536Z,77.04
2023-11-27T07:36:45.847Z,77.04
2023-11-27T07:39:14.015Z,77.11
2023-11-27T07:41:41.886Z,77.57
2023-11-27T07:44:16.552Z,77.94
2023-11-27T07:46:44.642Z,78.63
2023-11-27T07:49:12.864Z,79.50
2023-11-27T07:51:40.779Z,79.54
2023-11-27T07:54:10.125Z,79.41
2023-11-27T07:56:38.054Z,79.40
2023-11-27T07:59:06.173Z,79.60
2023-11-27T08:01:35.705Z,79.39
2023-11-27T08:04:03.810Z,79.31
2023-11-27T08:06:31.784Z,79.58
2023-11-27T08:08:59.996Z,80.07
2023-11-27T08:11:33.304Z,80.57
2023-11-27T08:14:01.264Z,82.00
2023-11-27T08:16:29.610Z,81.90
2023-11-27T08:18:57.584Z,81.37
2023-11-27T08:21:26.192Z,80.31
2023-11-27T08:23:56.163Z,80.64
2023-11-27T08:26:24.812Z,80.20
2023-11-27T08:28:54.161Z,80.30
2023-11-27T08:31:23.890Z,79.23
2023-11-27T08:33:51.741Z,79.21
2023-11-27T08:36:25.907Z,80.18
2023-11-27T08:38:53.788Z,80.26
2023-11-27T08:41:21.734Z,81.42
2023-11-27T08:43:49.752Z,81.70
2023-11-27T08:46:20.537Z,82.21
2023-11-27T08:48:48.533Z,82.45
2023-11-27T08:51:16.462Z,82.08
2023-11-27T08:53:44.368Z,82.56
2023-11-27T08:56:13.141Z,82.20
2023-11-27T08:58:41.106Z,82.13
2023-11-27T09:01:09.708Z,80.58
2023-11-27T09:03:39.005Z,77.91
2023-11-27T09:06:07.984Z,77.46
2023-11-27T09:08:35.855Z,75.88
2023-11-27T09:11:03.920Z,75.72
2023-11-27T09:13:31.903Z,74.93
2023-11-27T09:15:59.961Z,73.58
2023-11-27T09:18:27.882Z,73.80
2023-11-27T09:20:57.063Z,72.26
2023-11-27T09:23:24.925Z,73.13
2023-11-27T09:25:53.086Z,73.42
2023-11-27T09:28:21.021Z,73.36
2023-11-27T09:30:49.361Z,73.70
2023-11-27T09:33:17.275Z,73.75
2023-11-27T09:35:45.161Z,73.43
2023-11-27T09:38:14.497Z,74.43
2023-11-27T09:40:44.151Z,74.87
2023-11-27T09:43:13.508Z,74.46
2023-11-27T09:45:41.543Z,74.50
2023-11-27T09:48:12.175Z,74.59
2023-11-27T09:50:46.566Z,74.72
2023-11-27T09:53:21.103Z,74.22
2023-11-27T09:55:53.328Z,72.88
2023-11-27T09:58:23.027Z,73.76
2023-11-27T10:00:51.059Z,73.50
2023-11-27T10:03:20.471Z,72.57
2023-11-27T10:05:50.667Z,72.28
2023-11-27T10:08:20.329Z,72.57
2023-11-27T10:10:49.226Z,73.35
2023-11-27T10:13:31.450Z,72.12
2023-11-27T10:16:06.863Z,73.06
2023-11-27T10:18:34.896Z,72.94
2023-11-27T10:21:02.853Z,72.80
2023-11-27T10:23:32.828Z,72.82
2023-11-27T10:26:02.108Z,72.40
2023-11-27T10:29:02.317Z,71.76
2023-11-27T10:31:32.248Z,71.03
2023-11-27T10:34:00.273Z,69.81
2023-11-27T10:36:28.358Z,69.85
2023-11-27T10:39:16.356Z,70.36
2023-11-27T10:41:47.005Z,70.20
2023-11-27T10:44:16.643Z,69.55
2023-11-27T10:46:46.104Z,69.62
2023-11-27T10:49:15.922Z,68.74
2023-11-27T10:51:46.856Z,68.94
2023-11-27T10:54:18.376Z,70.00
2023-11-27T10:56:47.650Z,70.56
2023-11-27T10:59:18.226Z,70.00
2023-11-27T11:01:49.997Z,70.31
2023-11-27T11:04:25.083Z,69.15
2023-11-27T11:06:56.661Z,69.20
2023-11-27T11:09:26.990Z,69.38
2023-11-27T11:11:56.527Z,69.21
2023-11-27T11:14:28.119Z,68.49
2023-11-27T11:17:08.685Z,68.97
2023-11-27T11:19:44.567Z,68.07
2023-11-27T11:22:25.894Z,68.67
2023-11-27T11:25:10.985Z,69.49
2023-11-27T11:27:47.627Z,68.70
2023-11-27T11:30:16.430Z,68.72
2023-11-27T11:32:46.070Z,70.08
2023-11-27T11:35:14.118Z,69.39
2023-11-27T11:37:50.436Z,69.60
2023-11-27T11:40:20.448Z,69.16
2023-11-27T11:42:51.111Z,69.94
2023-11-27T11:45:26.480Z,69.32
2023-11-27T11:47:58.953Z,69.32
2023-11-27T11:50:31.646Z,69.75
2023-11-27T11:53:04.858Z,69.56
2023-11-27T11:55:35.864Z,69.11
2023-11-27T11:58:08.772Z,69.21
2023-11-27T12:00:45.838Z,69.43
2023-11-27T12:03:18.033Z,69.61
2023-11-27T12:05:50.937Z,68.97
2023-11-27T12:08:19.208Z,68.25
2023-11-27T12:10:48.502Z,68.54
2023-11-27T12:13:16.668Z,67.97
2023-11-27T12:15:44.795Z,66.77
2023-11-27T12:18:14.317Z,66.90
2023-11-27T12:20:43.736Z,65.88
2023-11-27T12:23:14.734Z,66.21
2023-11-27T12:25:43.444Z,66.26
2023-11-27T12:28:13.496Z,66.40
2023-11-27T12:30:44.557Z,66.47
2023-11-27T12:33:16.278Z,65.98
2023-11-27T12:35:47.027Z,67.14
2023-11-27T12:38:18.712Z,66.72
2023-11-27T12:40:49.275Z,67.14
2023-11-27T12:43:19.632Z,66.95
2023-11-27T12:45:58.296Z,67.47
2023-11-27T12:48:26.432Z,65.68
2023-11-27T12:50:56.117Z,66.67
2023-11-27T12:53:24.933Z,67.49
2023-11-27T12:55:55.270Z,65.77
2023-11-27T12:58:25.661Z,66.72
2023-11-27T13:00:57.115Z,66.45
2023-11-27T13:03:29.329Z,65.17
2023-11-27T13:06:01.055Z,65.82
2023-11-27T13:08:33.439Z,65.58
2023-11-27T13:11:05.556Z,66.40
2023-11-27T13:13:35.556Z,65.76
2023-11-27T13:16:07.440Z,66.91
2023-11-27T13:18:36.641Z,65.94
2023-11-27T13:21:09.728Z,65.40
2023-11-27T13:23:38.971Z,66.50
2023-11-27T13:26:19.218Z,65.63
2023-11-27T13:28:48.530Z,65.93
2023-11-27T13:31:17.694Z,65.52
2023-11-27T13:33:45.901Z,65.30
2023-11-27T13:36:20.379Z,65.05
2023-11-27T13:38:48.964Z,65.50
2023-11-27T13:41:17.216Z,65.98
2023-11-27T13:43:45.354Z,65.26
2023-11-27T13:46:15.681Z,64.59
2023-11-27T13:48:43.830Z,62.56
2023-11-27T13:51:21.799Z,62.52
2023-11-27T13:53:49.654Z,60.79
2023-11-27T13:56:20.827Z,60.18
2023-11-27T13:58:53.256Z,59.99
2023-11-27T14:01:23.654Z,59.39
2023-11-27T14:03:52.045Z,60.28
2023-11-27T14:06:23.950Z,61.29
2023-11-27T14:08:55.198Z,61.08
2023-11-27T14:11:32.887Z,61.59
2023-11-27T14:14:06.629Z,62.81
2023-11-27T14:16:44.921Z,62.91
2023-11-27T14:19:43.039Z,63.76
2023-11-27T14:22:28.564Z,65.40
2023-11-27T14:24:59.333Z,66.21
2023-11-27T14:27:39.186Z,66.21
2023-11-27T14:30:13.752Z,67.30
2023-11-27T14:32:43.356Z,68.25
2023-11-27T14:35:15.973Z,68.59
2023-11-27T14:37:44.229Z,69.71
2023-11-27T14:40:21.355Z,70.97
2023-11-27T14:42:51.283Z,71.62
2023-11-27T14:45:19.340Z,72.34
2023-11-27T14:47:48.765Z,74.21
2023-11-27T14:50:21.596Z,74.43
2023-11-27T14:52:51.241Z,74.75
2023-11-27T14:55:20.999Z,75.27
2023-11-27T14:57:50.000Z,76.86
2023-11-27T15:00:23.481Z,76.74
2023-11-27T15:02:52.842Z,77.03
2023-11-27T15:05:20.794Z,77.65
2023-11-27T15:07:49.591Z,78.03
2023-11-27T15:10:18.178Z,79.45
2023-11-27T15:12:47.376Z,80.01
2023-11-27T15:15:19.178Z,81.08
2023-11-27T15:17:50.319Z,82.54
2023-11-27T15:20:24.324Z,81.76
2023-11-27T15:22:54.105Z,82.30
2023-11-27T15:25:24.456Z,84.16
2023-11-27T15:27:52.711Z,83.06
2023-11-27T15:30:22.617Z,82.87
2023-11-27T15:32:50.522Z,83.06
2023-11-27T15:35:20.509Z,82.28
2023-11-27T15:37:49.304Z,82.71
2023-11-27T15:40:21.700Z,82.83
2023-11-27T15:42:49.819Z,83.63
2023-11-27T15:45:17.686Z,83.50
2023-11-27T15:47:46.056Z,83.93
2023-11-27T15:50:15.061Z,85.18
2023-11-27T15:52:47.034Z,85.37
2023-11-27T15:55:15.601Z,85.93
2023-11-27T15:57:45.298Z,86.32
2023-11-27T16:00:15.872Z,85.92
2023-11-27T16:02:43.965Z,86.25
2023-11-27T16:05:12.366Z,85.14
2023-11-27T16:07:41.228Z,83.99
2023-11-27T16:10:15.416Z,84.40
2023-11-27T16:12:43.748Z,84.64
2023-11-27T16:15:12.210Z,84.74
2023-11-27T16:17:52.961Z,85.36
2023-11-27T16:20:27.468Z,88.26
2023-11-27T16:22:55.961Z,90.37
2023-11-27T16:25:25.763Z,90.34
2023-11-27T16:27:53.626Z,89.70
2023-11-27T16:30:23.400Z,87.28
2023-11-27T16:32:51.980Z,87.56
2023-11-27T16:35:23.373Z,86.92
2023-11-27T16:37:52.597Z,86.58
2023-11-27T16:40:21.967Z,87.68
2023-11-27T16:42:53.918Z,90.64
2023-11-27T16:45:24.193Z,91.65
2023-11-27T16:47:53.408Z,91.86
2023-11-27T16:50:25.712Z,92.13
2023-11-27T16:52:56.108Z,92.36
2023-11-27T16:55:25.616Z,92.33
2023-11-27T16:57:56.421Z,92.63
2023-11-27T17:00:25.882Z,92.15
2023-11-27T17:02:54.702Z,92.74
2023-11-27T17:05:24.486Z,93.40
2023-11-27T17:07:52.426Z,93.46
2023-11-27T17:10:22.710Z,92.69
2023-11-27T17:12:52.134Z,93.52
2023-11-27T17:15:21.559Z,95.39
2023-11-27T17:17:51.490Z,94.50
2023-11-27T17:20:21.943Z,95.36
2023-11-27T17:23:00.753Z,95.95
2023-11-27T17:25:36.562Z,94.92
2023-11-27T17:28:06.288Z,95.28
2023-11-27T17:30:35.629Z,95.38
2023-11-27T17:33:04.473Z,95.25
2023-11-27T17:35:32.987Z,96.57
2023-11-27T17:38:03.872Z,95.75
2023-11-27T17:40:31.939Z,97.02
2023-11-27T17:43:00.401Z,98.05
2023-11-27T17:45:29.085Z,99.05
2023-11-27T17:47:58.522Z,98.93
2023-11-27T17:50:27.190Z,98.69
2023-11-27T17:52:56.610Z,99.38
2023-11-27T17:55:26.955Z,98.89
2023-11-27T17:57:56.513Z,98.37
2023-11-27T18:00:24.631Z,99.84
2023-11-27T18:02:54.203Z,99.83
2023-11-27T18:05:25.244Z,100.00
2023-11-27T18:07:54.263Z,100.00
2023-11-27T18:10:24.221Z,100.00
2023-11-27T18:12:53.105Z,99.59
2023-11-27T18:15:22.048Z,98.46
2023-11-27T18:17:52.141Z,99.04
2023-11-27T18:20:23.433Z,97.54
2023-11-27T18:22:53.262Z,99.19
2023-11-27T18:25:22.722Z,98.54
2023-11-27T18:27:52.059Z,99.63
2023-11-27T18:30:20.514Z,99.41
2023-11-27T18:32:48.967Z,100.00
2023-11-27T18:35:18.052Z,99.74
2023-11-27T18:37:47.606Z,100.00
2023-11-27T18:40:18.882Z,100.00
2023-11-27T18:42:49.619Z,100.00
2023-11-27T18:45:22.298Z,100.00
2023-11-27T18:47:50.821Z,100.00
2023-11-27T18:50:18.697Z,100.00
2023-11-27T18:52:46.684Z,100.00
2023-11-27T18:55:16.496Z,100.00
2023-11-27T19:00:16.123Z,100.00
2023-11-27T19:02:44.427Z,100.00
2023-11-27T19:05:13.541Z,100.00
2023-11-27T19:07:42.139Z,100.00
2023-11-27T19:10:11.148Z,100.00
2023-11-27T19:12:41.349Z,100.00
2023-11-27T19:15:10.364Z,100.00
2023-11-27T19:17:38.483Z,100.00
2023-11-27T19:20:11.589Z,100.00
2023-11-27T19:22:39.814Z,100.00
2023-11-27T19:25:11.552Z,100.00
2023-11-27T19:27:41.039Z,100.00
2023-11-27T19:30:10.789Z,100.00
2023-11-27T19:32:40.489Z,100.00
2023-11-27T19:35:11.141Z,100.00
2023-11-27T19:37:39.242Z,100.00
2023-11-27T19:40:09.533Z,100.00
2023-11-27T19:42:37.630Z,100.00
2023-11-27T19:45:09.394Z,100.00
2023-11-27T19:47:37.537Z,100.00
2023-11-27T19:50:08.137Z,100.00
2023-11-27T19:52:36.224Z,100.00
2023-11-27T19:55:04.246Z,100.00
2023-11-27T19:57:32.094Z,100.00
2023-11-27T19:59:59.961Z,100.00
2023-11-27T20:02:29.293Z,100.00
2023-11-27T20:04:57.267Z,100.00
2023-11-27T20:07:25.184Z,100.00
2023-11-27T20:09:53.044Z,99.60
2023-11-27T20:12:20.886Z,99.56
2023-11-27T20:14:48.770Z,99.92
2023-11-27T20:17:16.772Z,99.88
2023-11-27T20:19:46.017Z,99.65
2023-11-27T20:22:13.915Z,100.00
2023-11-27T20:24:41.744Z,99.61
2023-11-27T20:27:10.214Z,100.00
2023-11-27T20:29:43.492Z,100.00
2023-11-27T20:32:11.451Z,100.00
2023-11-27T20:34:39.419Z,99.97
2023-11-27T20:37:08.948Z,100.00
2023-11-27T20:39:36.858Z,100.00
2023-11-27T20:42:04.846Z,100.00
2023-11-27T20:44:39.095Z,100.00
2023-11-27T20:47:12.579Z,100.00
2023-11-27T20:49:40.455Z,100.00
2023-11-27T20:52:12.060Z,100.00
2023-11-27T20:54:42.087Z,100.00
2023-11-27T20:57:09.958Z,100.00
2023-11-27T20:59:38.890Z,100.00
2023-11-27T21:02:07.165Z,100.00
2023-11-27T21:04:38.139Z,100.00
2023-11-27T21:07:08.436Z,100.00
2023-11-27T21:09:39.882Z,99.05
2023-11-27T21:12:08.996Z,99.90
2023-11-27T21:14:36.856Z,99.95
2023-11-27T21:17:05.438Z,99.37
2023-11-27T21:19:33.431Z,100.00
2023-11-27T21:22:01.579Z,100.00
2023-11-27T21:24:29.435Z,100.00
2023-11-27T21:27:00.872Z,100.00
2023-11-27T21:29:30.095Z,99.41
2023-11-27T21:31:58.014Z,99.28
2023-11-27T21:34:25.924Z,98.79
2023-11-27T21:36:53.787Z,99.64
2023-11-27T21:39:22.514Z,97.78
2023-11-27T21:41:50.579Z,98.73
2023-11-27T21:44:19.871Z,97.67
2023-11-27T21:46:47.773Z,98.24
2023-11-27T21:49:16.006Z,99.05
2023-11-27T21:51:43.857Z,99.54
2023-11-27T21:54:13.444Z,98.81
2023-11-27T21:56:41.316Z,100.00
2023-11-27T21:59:09.388Z,100.00
2023-11-27T22:01:38.753Z,100.00
2023-11-27T22:04:06.759Z,100.00
2023-11-27T22:06:34.980Z,100.00
2023-11-27T22:09:03.390Z,100.00
2023-11-27T22:11:31.257Z,99.29
2023-11-27T22:13:59.145Z,99.04
2023-11-27T22:16:27.774Z,98.45
2023-11-27T22:18:57.108Z,99.62
2023-11-27T22:21:24.929Z,99.07
2023-11-27T22:23:52.991Z,98.33
2023-11-27T22:26:21.009Z,99.23
2023-11-27T22:28:50.014Z,98.74
2023-11-27T22:31:21.196Z,98.75
2023-11-27T22:33:49.284Z,99.43
2023-11-27T22:36:19.093Z,99.60
2023-11-27T22:38:46.961Z,98.53
2023-11-27T22:41:15.389Z,97.90
2023-11-27T22:43:43.292Z,98.62
2023-11-27T22:46:11.570Z,98.89
2023-11-27T22:48:39.474Z,99.87
2023-11-27T22:51:08.324Z,98.49
2023-11-27T22:53:37.550Z,99.76
2023-11-27T22:56:06.103Z,99.29
2023-11-27T22:58:34.078Z,99.60
2023-11-27T23:01:01.955Z,100.00
2023-11-27T23:03:29.929Z,99.79
2023-11-27T23:05:57.978Z,100.00
2023-11-27T23:08:25.848Z,100.00
2023-11-27T23:10:55.270Z,99.38
2023-11-27T23:13:23.436Z,100.00
2023-11-27T23:15:51.326Z,100.00
2023-11-27T23:18:19.193Z,100.00
2023-11-27T23:20:47.075Z,100.00
2023-11-27T23:23:15.045Z,100.00
2023-11-27T23:25:44.515Z,100.00
2023-11-27T23:28:14.834Z,100.00
2023-11-27T23:30:44.236Z,100.00
2023-11-27T23:33:12.180Z,100.00
2023-11-27T23:35:40.430Z,99.55
2023-11-27T23:38:08.264Z,100.00
2023-11-27T23:40:36.760Z,100.00
2023-11-27T23:43:04.715Z,100.00
2023-11-27T23:45:34.652Z,100.00
2023-11-27T23:48:02.592Z,100.00
2023-11-27T23:50:30.553Z,100.00
2023-11-27T23:52:58.440Z,100.00
2023-11-27T23:55:26.379Z,100.00
2023-11-27T23:57:54.325Z,100.00
